createdAt,value
2022-11-24T07:45:13.807Z,18.87
2022-11-24T07:47:59.112Z,18.90
2022-11-24T07:50:44.029Z,19.20
2022-11-24T07:53:28.925Z,19.19
2022-11-24T07:56:13.922Z,19.40
2022-11-24T07:58:58.857Z,19.55
2022-11-24T08:01:43.886Z,19.54
2022-11-24T08:04:29.372Z,19.64
2022-11-24T08:07:14.852Z,19.58
2022-11-24T08:10:00.060Z,19.73
2022-11-24T08:12:45.287Z,19.70
2022-11-24T08:15:30.254Z,19.80
2022-11-24T08:18:15.154Z,19.63
2022-11-24T08:21:00.424Z,19.76
2022-11-24T08:23:45.508Z,19.67
2022-11-24T08:26:30.503Z,19.75
2022-11-24T08:29:15.398Z,19.68
2022-11-24T08:32:00.267Z,19.63
2022-11-24T08:34:45.946Z,19.66
2022-11-24T08:37:30.952Z,19.15
2022-11-24T08:40:16.469Z,18.81
2022-11-24T08:43:01.391Z,18.83
2022-11-24T08:45:46.593Z,18.83
2022-11-24T08:48:31.844Z,18.85
2022-11-24T08:51:16.995Z,18.78
2022-11-24T08:54:02.381Z,18.77
2022-11-24T08:56:47.335Z,18.81
2022-11-24T15:49:49.185Z,19.94
2022-11-24T15:52:34.028Z,19.88
2022-11-24T15:55:19.150Z,19.88
2022-11-24T15:58:03.962Z,19.87
2022-11-24T16:00:48.968Z,19.91
2022-11-24T16:03:49.534Z,19.87
2022-11-24T16:06:35.008Z,19.50
2022-11-24T16:09:20.081Z,19.74
2022-11-24T16:12:05.491Z,19.79
2022-11-24T16:14:50.449Z,19.83
2022-11-24T16:17:35.306Z,19.75
2022-11-24T16:20:20.347Z,20.06
2022-11-24T16:23:05.246Z,20.12
2022-11-24T16:25:50.320Z,20.19
2022-11-24T16:28:35.193Z,20.25
2022-11-24T16:31:20.082Z,20.28
2022-11-24T16:34:05.046Z,20.29
2022-11-24T16:36:50.007Z,20.31
2022-11-24T16:39:34.985Z,20.34
2022-11-24T16:42:19.858Z,20.36
2022-11-24T16:45:04.820Z,20.33
2022-11-24T16:47:49.764Z,20.26
2022-11-24T16:50:34.684Z,20.36
2022-11-24T16:53:19.469Z,20.41
2022-11-24T16:56:04.289Z,20.43
2022-11-24T16:58:49.196Z,20.48
2022-11-24T17:01:34.149Z,20.42
2022-11-24T17:04:19.624Z,20.46
2022-11-24T17:07:04.561Z,20.49
2022-11-24T17:09:49.699Z,20.52
2022-11-24T17:12:35.171Z,20.51
2022-11-24T17:15:42.785Z,20.43
2022-11-24T17:18:26.012Z,20.28
2022-11-24T17:21:10.962Z,20.17
2022-11-24T17:23:56.240Z,20.09
2022-11-24T17:26:44.748Z,20.04
2022-11-24T17:29:34.265Z,19.99
2022-11-24T17:32:19.915Z,19.95
2022-11-24T17:35:05.520Z,19.93
2022-11-24T17:37:51.150Z,19.98
2022-11-24T17:40:36.470Z,19.98
2022-11-24T17:43:21.304Z,20.07
2022-11-24T17:46:06.188Z,20.20
2022-11-24T17:48:51.410Z,20.23
2022-11-24T17:51:36.754Z,20.27
2022-11-24T17:54:45.418Z,20.18
2022-11-24T17:57:26.926Z,20.20
2022-11-24T18:00:11.934Z,20.28
2022-11-24T18:02:56.890Z,20.37
2022-11-24T18:05:41.694Z,20.23
2022-11-24T18:08:26.565Z,20.32
2022-11-24T18:11:11.743Z,20.27
2022-11-24T18:14:00.592Z,20.29
2022-11-24T18:16:46.446Z,20.27
2022-11-24T18:19:31.744Z,20.26
2022-11-24T18:22:16.693Z,20.24
2022-11-24T18:25:01.976Z,20.25
2022-11-24T18:27:47.358Z,20.22
2022-11-24T18:30:32.740Z,20.23
2022-11-24T18:33:17.918Z,20.18
2022-11-24T18:36:03.436Z,20.27
2022-11-24T18:38:48.785Z,20.31
2022-11-24T18:41:33.659Z,20.33
2022-11-24T18:44:18.714Z,20.26
2022-11-24T18:47:03.562Z,20.24
2022-11-24T18:49:48.704Z,20.26
2022-11-24T18:52:34.053Z,20.38
2022-11-24T18:55:18.872Z,20.35
2022-11-24T18:58:03.639Z,20.28
2022-11-24T19:00:48.530Z,20.34
2022-11-24T19:03:33.530Z,20.27
2022-11-24T19:06:18.590Z,20.27
2022-11-24T19:09:03.559Z,20.30
2022-11-24T19:11:48.903Z,20.28
2022-11-24T19:14:34.004Z,20.34
2022-11-24T19:17:19.265Z,20.26
2022-11-24T19:20:04.265Z,20.34
2022-11-24T19:22:49.081Z,20.26
2022-11-24T19:25:33.995Z,20.38
2022-11-24T19:28:19.005Z,20.31
2022-11-24T19:31:03.916Z,20.30
2022-11-24T19:33:48.812Z,20.31
2022-11-24T19:36:33.832Z,20.34
2022-11-24T19:39:18.852Z,20.36
2022-11-24T19:42:03.668Z,20.18
2022-11-24T19:44:53.059Z,20.32
2022-11-24T19:47:41.561Z,20.30
2022-11-24T19:50:26.555Z,20.25
2022-11-24T19:53:11.398Z,20.22
2022-11-24T19:55:56.921Z,20.22
2022-11-24T19:58:42.280Z,20.30
2022-11-24T20:01:27.414Z,20.35
2022-11-24T20:04:12.656Z,20.29
2022-11-24T20:06:57.772Z,20.31
2022-11-24T20:09:43.317Z,20.35
2022-11-24T20:12:28.789Z,20.36
2022-11-24T20:15:14.310Z,20.40
2022-11-24T20:17:59.214Z,20.44
